Time;durP1;ratioP1;P1;durP2;ratioP2;P2;SDS_P1;SDS_P2;PMS_P1;PMS_P2;Temp;Humidity;BMP_temperature;BMP_pressure;BME280_temperature;BME280_humidity;BME280_pressure;Samples;Min_cycle;Max_cycle;Signal;HPM_P1;HPM_P2
2023/02/23 00:00:21;;;;;;;50.78;20.80;;;7.80;99.90;;;;;;5013533;28;20029;-76
2023/02/23 00:02:48;;;;;;;56.60;20.88;;;7.80;99.90;;;;;;5014922;28;20022;-76
2023/02/23 00:05:15;;;;;;;54.63;20.15;;;7.80;99.90;;;;;;5013535;28;20500;-76
2023/02/23 00:07:44;;;;;;;57.42;21.75;;;7.80;99.90;;;;;;5013313;28;20033;-76
2023/02/23 00:10:14;;;;;;;57.25;21.70;;;7.80;99.90;;;;;;5013420;28;20021;-76
2023/02/23 00:12:41;;;;;;;54.65;21.48;;;7.80;99.90;;;;;;5014580;28;20378;-76
2023/02/23 00:15:08;;;;;;;50.15;20.85;;;7.80;99.90;;;;;;5014557;28;20473;-76
2023/02/23 00:17:35;;;;;;;59.33;22.08;;;7.80;99.90;;;;;;5013435;28;20024;-76
2023/02/23 00:20:07;;;;;;;55.67;21.30;;;7.90;99.90;;;;;;5015283;28;20029;-76
2023/02/23 00:22:33;;;;;;;53.58;20.05;;;7.80;99.90;;;;;;5014483;28;20032;-76
2023/02/23 00:24:59;;;;;;;60.88;21.73;;;7.80;99.90;;;;;;5014602;28;20032;-76
2023/02/23 00:27:25;;;;;;;56.33;22.80;;;7.80;99.90;;;;;;5012938;28;20030;-76
2023/02/23 00:29:50;;;;;;;60.13;22.27;;;7.80;99.90;;;;;;5013439;28;20022;-76
2023/02/23 00:32:20;;;;;;;58.20;21.92;;;7.80;99.90;;;;;;5014456;28;20444;-76
2023/02/23 00:34:48;;;;;;;52.97;20.15;;;7.80;99.90;;;;;;5013090;28;20018;-76
2023/02/23 00:37:15;;;;;;;56.67;21.15;;;7.80;99.90;;;;;;5014363;28;20022;-76
2023/02/23 00:39:41;;;;;;;59.92;21.15;;;7.80;99.90;;;;;;5014229;28;20021;-76
2023/02/23 00:42:06;;;;;;;59.50;21.45;;;7.70;99.90;;;;;;5014343;28;20109;-76
2023/02/23 00:44:32;;;;;;;60.85;21.30;;;7.70;99.90;;;;;;5013013;28;20014;-76
2023/02/23 00:47:01;;;;;;;50.15;19.58;;;7.70;99.90;;;;;;5012911;28;20100;-76
2023/02/23 00:49:27;;;;;;;53.58;20.50;;;7.70;99.90;;;;;;5014147;28;20555;-76
2023/02/23 00:51:52;;;;;;;54.97;20.13;;;7.70;99.90;;;;;;5014202;28;20061;-76
2023/02/23 00:54:20;;;;;;;56.22;21.50;;;7.70;99.90;;;;;;5013921;28;20030;-76
2023/02/23 00:56:46;;;;;;;51.78;19.98;;;7.70;99.90;;;;;;5012601;28;20084;-76
2023/02/23 00:59:13;;;;;;;53.20;19.75;;;7.70;99.90;;;;;;5012791;28;20025;-76
2023/02/23 01:01:40;;;;;;;61.05;22.55;;;7.70;99.90;;;;;;5012698;28;20030;-76
2023/02/23 01:04:06;;;;;;;53.10;20.30;;;7.70;99.90;;;;;;5014075;28;20049;-76
2023/02/23 01:06:32;;;;;;;49.97;19.27;;;7.70;99.90;;;;;;5012662;28;20083;-76
2023/02/23 01:08:58;;;;;;;57.75;20.67;;;7.60;99.90;;;;;;5013890;28;20025;-76
2023/02/23 01:11:27;;;;;;;56.15;21.30;;;7.70;99.90;;;;;;5012814;28;20527;-76
2023/02/23 01:13:54;;;;;;;58.25;20.58;;;7.70;99.90;;;;;;5013833;28;20064;-76
2023/02/23 01:16:25;;;;;;;55.33;19.08;;;7.70;99.90;;;;;;5012606;28;20032;-76
2023/02/23 01:18:50;;;;;;;53.72;20.98;;;7.70;99.90;;;;;;5013705;28;20030;-76
2023/02/23 01:21:34;;;;;;;55.88;21.27;;;7.60;99.90;;;;;;5012300;28;20091;-76
2023/02/23 01:24:01;;;;;;;54.00;20.67;;;7.60;99.90;;;;;;5013641;28;20025;-76
2023/02/23 01:26:35;;;;;;;55.72;22.05;;;7.60;99.90;;;;;;5013719;28;20021;-76
2023/02/23 01:29:04;;;;;;;53.67;19.45;;;7.60;99.90;;;;;;5013634;28;20397;-76
2023/02/23 01:31:30;;;;;;;58.00;19.63;;;7.60;99.90;;;;;;5013558;28;20026;-76
2023/02/23 01:34:00;;;;;;;57.55;20.95;;;7.60;99.90;;;;;;5013535;28;20026;-76
2023/02/23 01:36:27;;;;;;;55.53;20.40;;;7.70;99.90;;;;;;5013714;28;20059;-76
2023/02/23 01:38:55;;;;;;;58.20;20.77;;;7.60;99.90;;;;;;5012341;28;20029;-76
2023/02/23 01:41:22;;;;;;;54.03;21.73;;;7.70;99.90;;;;;;5015951;28;20083;-76
2023/02/23 01:44:00;;;;;;;54.53;21.63;;;7.60;99.90;;;;;;5016107;28;20505;-76
2023/02/23 01:46:26;;;;;;;56.53;20.45;;;7.60;99.90;;;;;;5016311;28;20116;-76
2023/02/23 01:48:55;;;;;;;57.70;21.58;;;7.70;99.90;;;;;;5018011;28;20026;-76
2023/02/23 01:51:22;;;;;;;;;;;7.70;99.90;;;;;;5016293;28;20029;-76
2023/02/23 01:53:58;;;;;;;56.33;19.98;;;7.70;99.90;;;;;;5017371;28;20368;-76
2023/02/23 01:56:31;;;;;;;55.00;20.60;;;7.70;99.90;;;;;;5016980;28;20065;-76
2023/02/23 01:59:00;;;;;;;59.22;21.60;;;7.70;99.90;;;;;;5017023;28;20503;-77
2023/02/23 02:01:28;;;;;;;;;;;7.70;99.90;;;;;;5017346;28;20018;-76
2023/02/23 02:03:57;;;;;;;57.75;22.67;;;8.30;99.90;;;;;;5015720;28;19905;-76
2023/02/23 02:06:28;;;;;;;59.15;22.08;;;7.70;99.90;;;;;;5017029;28;20030;-77
2023/02/23 02:08:58;;;;;;;55.72;20.92;;;7.70;99.90;;;;;;5017309;28;20024;-77
2023/02/23 02:11:35;;;;;;;60.03;22.23;;;7.70;99.90;;;;;;5016991;28;20411;-76
2023/02/23 02:14:11;;;;;;;54.80;22.65;;;7.70;99.90;;;;;;5016965;28;20022;-77
2023/02/23 02:17:06;;;;;;;61.28;22.15;;;7.60;99.90;;;;;;5017456;28;20030;-77
2023/02/23 02:19:58;;;;;;;58.13;21.63;;;7.70;99.90;;;;;;5017330;28;20069;-77
2023/02/23 02:23:01;;;;;;;54.30;20.95;;;7.70;99.90;;;;;;5016812;28;20033;-77
2023/02/23 02:26:08;;;;;;;58.20;21.42;;;7.70;99.90;;;;;;5016933;28;20034;-77
2023/02/23 02:29:31;;;;;;;55.83;20.83;;;7.70;99.90;;;;;;5016790;28;20028;-77
2023/02/23 02:32:29;;;;;;;53.53;21.88;;;7.60;99.90;;;;;;4956217;28;20035;-77
2023/02/23 02:35:06;;;;;;;68.07;21.75;;;7.70;99.90;;;;;;4924960;29;20066;-77
2023/02/23 02:38:03;;;;;;;57.17;21.10;;;7.60;99.90;;;;;;5002063;28;20034;-77
2023/02/23 02:40:53;;;;;;;55.60;20.02;;;7.70;99.90;;;;;;5015057;28;20018;-75
2023/02/23 02:43:22;;;;;;;58.00;21.20;;;7.60;99.90;;;;;;5015242;28;20026;-77
2023/02/23 02:46:11;;;;;;;62.78;22.05;;;7.70;99.90;;;;;;5015201;28;20496;-77
2023/02/23 02:49:09;;;;;;;52.92;20.15;;;7.60;99.90;;;;;;5016342;28;20029;-77
2023/02/23 02:51:54;;;;;;;52.63;21.43;;;7.70;99.90;;;;;;5016035;28;20030;-77
2023/02/23 02:54:39;;;;;;;58.35;21.08;;;7.70;99.90;;;;;;5014770;28;20272;-77
2023/02/23 02:57:05;;;;;;;60.05;21.38;;;7.70;99.90;;;;;;5016012;28;20034;-77
2023/02/23 04:19:55;;;;;;;54.70;18.65;;;7.50;99.90;;;;;;5014683;28;20024;-77
2023/02/23 04:22:21;;;;;;;51.50;20.20;;;7.50;99.90;;;;;;5013431;28;20022;-76
2023/02/23 04:24:48;;;;;;;56.05;20.42;;;7.50;99.90;;;;;;5014882;28;20037;-77
2023/02/23 04:27:14;;;;;;;57.10;19.52;;;7.50;99.90;;;;;;5014591;28;20034;-77
2023/02/23 04:29:40;;;;;;;59.63;22.70;;;7.50;99.90;;;;;;5014497;28;20377;-77
2023/02/23 04:32:11;;;;;;;52.38;19.60;;;7.50;99.90;;;;;;5013105;28;20029;-77
2023/02/23 04:34:36;;;;;;;58.20;20.42;;;7.50;99.90;;;;;;5014275;28;20087;-77
2023/02/23 04:37:02;;;;;;;61.47;21.80;;;7.50;99.90;;;;;;5014346;28;20021;-77
2023/02/23 04:39:27;;;;;;;57.15;21.45;;;7.50;99.90;;;;;;5014305;28;20018;-77
2023/02/23 04:41:53;;;;;;;58.92;21.38;;;7.50;99.90;;;;;;5014114;28;20018;-77
2023/02/23 04:44:19;;;;;;;65.63;22.13;;;7.60;99.90;;;;;;5014189;28;20018;-77
2023/02/23 04:46:44;;;;;;;61.70;22.48;;;7.60;99.90;;;;;;5014275;28;20053;-77
2023/02/23 04:49:10;;;;;;;59.97;21.63;;;7.60;99.90;;;;;;5014114;28;20392;-77
2023/02/23 04:51:36;;;;;;;62.05;22.45;;;7.60;99.90;;;;;;5014005;28;20092;-77
2023/02/23 04:54:02;;;;;;;61.30;21.48;;;7.60;99.90;;;;;;5014115;28;20440;-77
2023/02/23 04:56:29;;;;;;;56.47;21.23;;;7.60;99.90;;;;;;5013876;28;20057;-77
2023/02/23 04:58:54;;;;;;;60.13;22.42;;;7.60;99.90;;;;;;5012676;28;20022;-77
2023/02/23 05:01:23;;;;;;;66.45;22.05;;;7.50;99.90;;;;;;5013999;28;20540;-77
2023/02/23 05:03:49;;;;;;;65.03;22.02;;;7.50;99.90;;;;;;5013936;28;20481;-77
2023/02/23 05:06:16;;;;;;;68.00;21.98;;;8.10;99.90;;;;;;5013902;28;20021;-77
2023/02/23 05:08:42;;;;;;;65.07;20.77;;;7.50;99.90;;;;;;5014026;28;20053;-77
2023/02/23 05:11:08;;;;;;;62.17;20.77;;;7.50;99.90;;;;;;5013819;28;20026;-77
2023/02/23 05:13:33;;;;;;;61.13;19.95;;;7.50;99.90;;;;;;5013688;28;20029;-76
2023/02/23 05:15:59;;;;;;;60.58;21.13;;;7.50;99.90;;;;;;5012509;28;20026;-77
2023/02/23 05:18:26;;;;;;;65.88;21.80;;;7.40;99.90;;;;;;5013016;28;20057;-77
2023/02/23 05:20:52;;;;;;;64.35;21.55;;;7.40;99.90;;;;;;5013677;28;20030;-77
2023/02/23 05:23:18;;;;;;;65.35;22.17;;;7.40;99.90;;;;;;5013689;28;20029;-77
2023/02/23 05:25:44;;;;;;;55.72;19.73;;;7.40;99.90;;;;;;5013756;28;20057;-77
2023/02/23 05:28:09;;;;;;;53.90;18.25;;;7.40;99.90;;;;;;5014179;28;20370;-77
2023/02/23 05:30:35;;;;;;;54.40;20.40;;;7.40;99.90;;;;;;5012351;28;20470;-77
2023/02/23 05:33:01;;;;;;;58.60;20.05;;;7.40;99.90;;;;;;5012367;28;20045;-77
2023/02/23 05:35:27;;;;;;;55.95;19.92;;;7.40;99.90;;;;;;5012217;28;20029;-77
2023/02/23 05:37:53;;;;;;;59.15;20.83;;;7.40;99.90;;;;;;5013701;28;20055;-76
2023/02/23 05:40:18;;;;;;;59.90;19.83;;;7.40;99.90;;;;;;5014059;28;20057;-77
2023/02/23 05:42:44;;;;;;;60.28;20.52;;;7.40;99.90;;;;;;5013770;28;20535;-76
2023/02/23 05:45:10;;;;;;;56.83;20.67;;;7.40;99.90;;;;;;5013346;28;20026;-77
2023/02/23 05:47:37;;;;;;;65.85;21.88;;;7.40;99.90;;;;;;5013664;28;20401;-77
2023/02/23 05:50:11;;;;;;;58.33;18.58;;;7.50;99.90;;;;;;5013931;28;20461;-77
2023/02/23 05:52:40;;;;;;;55.95;19.50;;;7.40;99.90;;;;;;5012242;28;20432;-77
2023/02/23 05:55:06;;;;;;;;;;;7.40;99.90;;;;;;5013843;28;20030;-77
2023/02/23 05:57:32;;;;;;;56.33;19.50;;;7.40;99.90;;;;;;5012095;28;19920;-77
2023/02/23 05:59:57;;;;;;;66.00;21.90;;;7.40;99.90;;;;;;5012053;28;20022;-77
2023/02/23 06:02:23;;;;;;;59.13;20.42;;;7.40;99.90;;;;;;5013274;28;20072;-77
2023/02/23 06:04:48;;;;;;;48.47;18.23;;;7.40;99.90;;;;;;5013302;28;20104;-77
2023/02/23 06:07:14;;;;;;;52.38;18.13;;;7.40;99.90;;;;;;5012356;28;20087;-76
2023/02/23 06:09:40;;;;;;;56.92;20.45;;;7.40;99.90;;;;;;5013457;28;20034;-76
2023/02/23 06:12:05;;;;;;;56.25;18.58;;;7.40;99.90;;;;;;5013179;28;20030;-76
2023/02/23 06:14:32;;;;;;;59.63;20.30;;;7.40;99.90;;;;;;5013239;28;20022;-77
2023/02/23 06:16:59;;;;;;;55.17;21.38;;;7.40;99.90;;;;;;5013148;28;20034;-76
2023/02/23 06:19:24;;;;;;;59.45;20.05;;;7.40;99.90;;;;;;5011732;28;20447;-77
2023/02/23 06:21:51;;;;;;;55.53;20.60;;;7.40;99.90;;;;;;5012923;28;20030;-76
2023/02/23 06:24:18;;;;;;;54.30;19.20;;;7.40;99.90;;;;;;5013288;28;20029;-77
2023/02/23 06:26:44;;;;;;;55.95;20.80;;;7.40;99.90;;;;;;5015652;28;20065;-76
2023/02/23 06:29:10;;;;;;;54.47;19.27;;;7.40;99.90;;;;;;5015378;28;20030;-76
2023/02/23 06:31:38;;;;;;;58.45;20.92;;;7.40;99.90;;;;;;5015309;28;20057;-76
2023/02/23 06:34:03;;;;;;;58.67;21.90;;;7.40;99.90;;;;;;5015324;28;20030;-76
2023/02/23 06:36:29;;;;;;;55.13;19.48;;;7.50;99.90;;;;;;5016993;28;20030;-77
2023/02/23 06:38:58;;;;;;;57.40;20.08;;;7.40;99.90;;;;;;5016641;28;20024;-77
2023/02/23 06:41:25;;;;;;;52.53;19.13;;;7.40;99.90;;;;;;5016580;28;20112;-77
2023/02/23 06:43:51;;;;;;;56.53;20.58;;;7.40;99.90;;;;;;5016449;28;20053;-77
2023/02/23 06:46:17;;;;;;;53.15;21.15;;;7.30;99.90;;;;;;5016345;28;20033;-77
2023/02/23 06:48:42;;;;;;;61.65;20.63;;;7.40;99.90;;;;;;5016413;28;20105;-76
2023/02/23 06:51:08;;;;;;;58.53;18.27;;;7.40;99.90;;;;;;5016375;28;20068;-76
2023/02/23 06:53:34;;;;;;;58.00;20.52;;;7.40;99.90;;;;;;5015061;28;20017;-77
2023/02/23 06:56:00;;;;;;;58.05;19.90;;;7.40;99.90;;;;;;5025148;22;20048;-74
2023/02/23 06:58:27;;;;;;;53.15;19.77;;;7.40;99.90;;;;;;5016116;28;20022;-74
2023/02/23 07:00:55;;;;;;;63.38;21.20;;;7.40;99.90;;;;;;5016010;28;20159;-74
2023/02/23 07:03:21;;;;;;;60.00;19.77;;;7.40;99.90;;;;;;5014965;28;20025;-74
2023/02/23 07:05:48;;;;;;;50.20;19.00;;;7.40;99.90;;;;;;5016204;28;20057;-74
2023/02/23 07:08:15;;;;;;;55.30;19.80;;;7.40;99.90;;;;;;5014660;28;20029;-74
2023/02/23 07:10:41;;;;;;;61.58;21.77;;;7.40;99.90;;;;;;5014508;28;20435;-74
2023/02/23 07:13:07;;;;;;;62.58;20.67;;;7.40;99.90;;;;;;5014625;28;20018;-74
2023/02/23 07:15:34;;;;;;;64.88;20.60;;;7.50;99.90;;;;;;5014567;28;20118;-74
2023/02/23 07:18:00;;;;;;;55.13;19.90;;;7.50;99.90;;;;;;5014588;28;20053;-74
2023/02/23 07:20:26;;;;;;;57.00;19.70;;;7.50;99.90;;;;;;5015939;28;20022;-74
2023/02/23 07:22:51;;;;;;;52.10;18.80;;;7.50;99.90;;;;;;5015505;28;20025;-74
2023/02/23 07:25:20;;;;;;;55.05;18.65;;;7.50;99.90;;;;;;5014292;28;20057;-74
2023/02/23 07:27:46;;;;;;;52.78;17.42;;;7.50;99.90;;;;;;5015570;28;20096;-74
2023/02/23 07:30:12;;;;;;;56.67;19.52;;;7.60;99.90;;;;;;5014310;28;20437;-74
2023/02/23 07:32:39;;;;;;;53.90;18.25;;;7.50;99.90;;;;;;5013485;28;20116;-74
2023/02/23 07:35:05;;;;;;;61.58;19.70;;;7.60;99.90;;;;;;5015176;28;20485;-74
2023/02/23 07:37:31;;;;;;;60.60;20.17;;;7.60;99.90;;;;;;5012855;28;20172;-74
2023/02/23 07:39:56;;;;;;;55.60;19.52;;;7.60;99.90;;;;;;5015310;28;20065;-74
2023/02/23 07:42:22;;;;;;;59.10;19.77;;;7.60;99.90;;;;;;5015147;28;20037;-74
2023/02/23 07:44:48;;;;;;;52.75;19.42;;;7.60;99.90;;;;;;5015378;28;20026;-74
2023/02/23 07:47:14;;;;;;;62.53;21.40;;;7.60;99.90;;;;;;5013839;28;20386;-74
2023/02/23 07:49:39;;;;;;;54.35;18.00;;;7.60;99.90;;;;;;5013865;28;20060;-74
2023/02/23 07:52:05;;;;;;;54.72;18.73;;;7.60;99.90;;;;;;5014928;28;20077;-74
2023/02/23 07:54:30;;;;;;;59.22;19.08;;;7.70;99.90;;;;;;5013775;28;20026;-77
2023/02/23 07:56:56;;;;;;;55.33;19.40;;;7.70;99.90;;;;;;5014815;28;20444;-76
2023/02/23 07:59:22;;;;;;;53.47;18.88;;;7.70;99.90;;;;;;5014719;28;20045;-76
2023/02/23 08:01:47;;;;;;;57.08;19.35;;;7.70;99.90;;;;;;5014818;28;20026;-76
2023/02/23 08:04:13;;;;;;;54.78;19.27;;;7.70;99.90;;;;;;5015117;28;20097;-76
2023/02/23 08:06:38;;;;;;;56.45;18.55;;;7.80;99.90;;;;;;5014614;28;20145;-76
2023/02/23 08:09:04;;;;;;;52.83;18.50;;;8.00;99.90;;;;;;5013627;28;20509;-76
2023/02/23 08:11:30;;;;;;;57.38;19.95;;;7.80;99.90;;;;;;5013297;28;20038;-76
2023/02/23 08:13:58;;;;;;;59.58;20.15;;;8.40;99.90;;;;;;5014766;28;20025;-76
2023/02/23 08:16:32;;;;;;;57.55;19.23;;;7.90;99.90;;;;;;5014703;28;20048;-76
2023/02/23 08:19:02;;;;;;;53.22;18.70;;;8.00;99.90;;;;;;5014583;28;20046;-76
2023/02/23 08:21:28;;;;;;;64.68;19.17;;;8.00;99.90;;;;;;5014777;28;20069;-76
2023/02/23 08:23:54;;;;;;;64.97;19.85;;;8.00;99.90;;;;;;5015102;28;20022;-76
2023/02/23 08:26:23;;;;;;;57.97;19.95;;;8.10;99.90;;;;;;5013617;28;20120;-76
2023/02/23 08:28:48;;;;;;;60.00;20.50;;;8.10;99.90;;;;;;5014592;28;20025;-76
2023/02/23 08:31:17;;;;;;;54.78;18.40;;;8.10;99.90;;;;;;5012227;28;20057;-76
2023/02/23 08:33:42;;;;;;;60.85;19.40;;;8.10;99.90;;;;;;5013942;28;20396;-76
2023/02/23 08:36:08;;;;;;;50.53;17.23;;;8.20;99.90;;;;;;5013147;28;20026;-76
2023/02/23 08:38:37;;;;;;;51.60;16.80;;;8.10;99.90;;;;;;5014335;28;20026;-76
2023/02/23 08:41:04;;;;;;;54.65;18.23;;;8.20;99.90;;;;;;5014844;28;20021;-76
2023/02/23 08:43:30;;;;;;;49.65;17.35;;;8.20;99.90;;;;;;5014281;28;20036;-76
2023/02/23 08:45:56;;;;;;;48.08;17.10;;;8.30;99.90;;;;;;5014148;28;20097;-76
2023/02/23 08:48:23;;;;;;;49.20;18.35;;;8.20;99.90;;;;;;5014927;28;20101;-76
2023/02/23 08:50:49;;;;;;;55.78;17.50;;;8.20;99.90;;;;;;5013762;28;20573;-76
2023/02/23 08:53:17;;;;;;;49.25;17.67;;;8.30;99.90;;;;;;5015191;28;20025;-76
2023/02/23 08:55:43;;;;;;;50.65;18.27;;;8.30;99.90;;;;;;5014962;28;20034;-76
2023/02/23 08:58:10;;;;;;;46.25;16.40;;;8.30;99.90;;;;;;5015560;28;20511;-76
2023/02/23 09:00:37;;;;;;;44.97;15.15;;;8.40;99.90;;;;;;5014104;28;20057;-76
2023/02/23 09:03:04;;;;;;;53.47;17.77;;;8.40;99.90;;;;;;5013239;28;20022;-76
2023/02/23 09:05:30;;;;;;;67.78;17.52;;;8.40;99.90;;;;;;5014731;28;20026;-76
2023/02/23 09:07:56;;;;;;;45.45;16.85;;;8.40;99.90;;;;;;5013710;28;20454;-76
2023/02/23 09:10:24;;;;;;;46.55;16.02;;;8.40;99.90;;;;;;5013595;28;20049;-76
2023/02/23 09:12:50;;;;;;;50.03;15.93;;;8.50;99.90;;;;;;5014456;28;20049;-76
2023/02/23 09:15:16;;;;;;;46.92;14.98;;;8.60;99.90;;;;;;5013574;28;20098;-75
2023/02/23 09:17:46;;;;;;;52.28;16.77;;;8.60;99.90;;;;;;5013340;28;20473;-76
2023/02/23 09:20:14;;;;;;;46.83;18.05;;;8.70;99.90;;;;;;5013351;28;20155;-76
2023/02/23 09:22:47;;;;;;;43.97;15.35;;;8.80;99.90;;;;;;5014665;28;20014;-76
2023/02/23 09:25:18;;;;;;;43.97;14.95;;;8.80;99.90;;;;;;5014329;28;20018;-76
2023/02/23 09:27:47;;;;;;;43.55;14.15;;;8.90;99.90;;;;;;5013801;28;20022;-76
2023/02/23 09:30:16;;;;;;;41.28;15.05;;;8.90;99.90;;;;;;5012408;28;20116;-76
2023/02/23 09:32:44;;;;;;;36.17;13.98;;;8.90;99.90;;;;;;5012440;28;20022;-76
2023/02/23 09:35:10;;;;;;;39.70;13.57;;;8.90;99.90;;;;;;5012369;28;20500;-76
2023/02/23 09:37:35;;;;;;;43.47;14.35;;;8.90;99.90;;;;;;5013794;28;20416;-76
2023/02/23 09:40:02;;;;;;;38.53;13.50;;;8.90;99.90;;;;;;5012312;28;20020;-76
2023/02/23 09:42:39;;;;;;;43.40;14.00;;;8.80;99.90;;;;;;5012285;28;20469;-76
2023/02/23 09:45:32;;;;;;;36.30;12.25;;;8.90;99.90;;;;;;5012166;28;20018;-76
2023/02/23 09:48:15;;;;;;;42.33;12.82;;;8.90;99.90;;;;;;5013797;28;20030;-76
2023/02/23 09:50:45;;;;;;;37.17;12.68;;;8.90;99.90;;;;;;5012233;28;20030;-76
2023/02/23 09:53:32;;;;;;;36.03;12.63;;;8.90;99.90;;;;;;5012197;28;20022;-76
2023/02/23 09:55:58;;;;;;;33.75;12.00;;;9.00;99.90;;;;;;5013642;28;20034;-76
2023/02/23 09:58:29;;;;;;;31.90;11.20;;;8.90;99.90;;;;;;5013425;28;20507;-76
2023/02/23 10:01:10;;;;;;;32.92;11.40;;;9.00;99.90;;;;;;5015197;28;20049;-76
2023/02/23 10:03:45;;;;;;;31.55;10.85;;;9.00;99.90;;;;;;5017164;28;20452;-76
2023/02/23 10:06:16;;;;;;;31.83;11.35;;;9.00;99.90;;;;;;5015895;28;20022;-76
2023/02/23 10:09:04;;;;;;;29.48;9.55;;;9.00;99.90;;;;;;5016969;28;20030;-76
2023/02/23 10:11:43;;;;;;;30.38;10.57;;;9.00;99.90;;;;;;5016933;28;20022;-76
2023/02/23 10:14:26;;;;;;;28.95;9.95;;;9.00;99.90;;;;;;5015635;28;20061;-76
2023/02/23 10:17:33;;;;;;;29.52;10.00;;;9.00;99.90;;;;;;5017329;28;20030;-76
2023/02/23 10:20:25;;;;;;;32.50;9.75;;;9.00;99.90;;;;;;5016877;28;20034;-76
2023/02/23 10:22:54;;;;;;;24.42;9.20;;;9.00;99.90;;;;;;5017133;28;20026;-76
2023/02/23 10:25:24;;;;;;;;;;;9.00;99.90;;;;;;5015781;28;20029;-76
2023/02/23 10:27:54;;;;;;;33.75;10.43;;;9.00;99.90;;;;;;5016922;28;19952;-76
2023/02/23 10:30:29;;;;;;;24.80;8.73;;;9.00;99.90;;;;;;5016655;28;20077;-76
2023/02/23 10:33:14;;;;;;;28.77;9.13;;;9.00;99.90;;;;;;5015111;28;20433;-76
2023/02/23 10:35:39;;;;;;;26.80;9.40;;;9.00;99.90;;;;;;5015343;28;20033;-76
2023/02/23 10:38:05;;;;;;;20.80;7.22;;;9.00;99.90;;;;;;5016364;28;20022;-76
2023/02/23 10:40:32;;;;;;;23.63;8.77;;;9.00;99.90;;;;;;5016475;28;20018;-76
2023/02/23 10:43:00;;;;;;;24.70;8.38;;;9.00;99.90;;;;;;5016489;28;20014;-76
2023/02/23 10:45:27;;;;;;;19.65;7.35;;;9.10;99.90;;;;;;5016460;28;20025;-76
2023/02/23 10:48:30;;;;;;;17.83;6.65;;;9.20;99.90;;;;;;5015219;28;20092;-76
2023/02/23 10:51:01;;;;;;;26.25;7.15;;;9.20;99.90;;;;;;5016331;28;20434;-76
2023/02/23 10:53:35;;;;;;;24.10;6.95;;;9.30;99.90;;;;;;5016210;28;20088;-76
2023/02/23 10:56:05;;;;;;;20.67;6.72;;;9.50;99.90;;;;;;5014752;28;20030;-76
2023/02/23 10:58:38;;;;;;;16.67;5.32;;;9.40;99.90;;;;;;5014765;28;20109;-76
2023/02/23 11:01:04;;;;;;;14.73;5.90;;;9.70;99.90;;;;;;5016052;28;20034;-76
2023/02/23 11:03:33;;;;;;;12.43;5.13;;;9.50;99.90;;;;;;5014665;28;20484;-76
2023/02/23 11:05:59;;;;;;;20.00;7.22;;;9.60;99.90;;;;;;5016600;28;20040;-76
2023/02/23 11:08:34;;;;;;;16.02;5.28;;;9.60;99.90;;;;;;5014763;28;20029;-76
2023/02/23 11:11:15;;;;;;;13.00;5.07;;;9.70;99.90;;;;;;5016050;28;20112;-76
2023/02/23 11:13:46;;;;;;;13.15;4.22;;;9.70;99.90;;;;;;5016353;28;20072;-76
2023/02/23 11:16:15;;;;;;;12.93;5.18;;;9.80;99.90;;;;;;5015819;28;20026;-76
2023/02/23 11:18:59;;;;;;;13.57;5.32;;;9.80;99.90;;;;;;5014453;28;20014;-76
2023/02/23 11:21:32;;;;;;;14.57;5.70;;;9.70;99.90;;;;;;5014323;28;20452;-76
2023/02/23 11:24:20;;;;;;;12.90;4.18;;;9.70;99.90;;;;;;5014402;28;20468;-76
2023/02/23 11:26:48;;;;;;;11.60;4.68;;;9.70;99.90;;;;;;5015837;28;20105;-76
2023/02/23 11:29:34;;;;;;;12.20;4.57;;;9.60;99.90;;;;;;5014513;28;20037;-76
2023/02/23 11:32:07;;;;;;;12.15;4.55;;;9.50;99.90;;;;;;5015489;28;20110;-76
2023/02/23 11:34:39;;;;;;;12.32;4.38;;;9.40;99.90;;;;;;5015360;28;20101;-76
2023/02/23 11:37:23;;;;;;;13.70;5.28;;;9.60;99.90;;;;;;5015233;28;20034;-76
2023/02/23 11:39:56;;;;;;;18.48;5.32;;;9.30;99.90;;;;;;5014116;28;20017;-76
2023/02/23 11:42:32;;;;;;;18.65;7.00;;;9.30;99.90;;;;;;5015699;28;20034;-76
2023/02/23 11:45:19;;;;;;;16.40;5.72;;;9.00;99.90;;;;;;5013951;28;20022;-76
2023/02/23 11:47:54;;;;;;;19.17;6.00;;;9.00;99.90;;;;;;5013877;28;20022;-76
2023/02/23 11:50:27;;;;;;;18.42;6.00;;;8.90;99.90;;;;;;5015235;28;20026;-76
2023/02/23 11:53:02;;;;;;;16.27;5.07;;;8.90;99.90;;;;;;5014907;28;20056;-76
2023/02/23 11:55:30;;;;;;;22.10;6.07;;;8.80;99.90;;;;;;5014934;28;20404;-76
2023/02/23 11:58:21;;;;;;;20.13;6.70;;;8.80;99.90;;;;;;5013875;28;20088;-76
2023/02/23 12:01:11;;;;;;;20.05;6.43;;;8.80;99.90;;;;;;5013759;28;20064;-76
2023/02/23 12:03:46;;;;;;;14.40;6.07;;;8.80;99.90;;;;;;5014880;28;20028;-76
2023/02/23 12:06:29;;;;;;;17.77;6.22;;;8.80;99.90;;;;;;5013700;28;20034;-76
2023/02/23 12:09:11;;;;;;;19.92;6.20;;;8.90;99.90;;;;;;5013588;28;20026;-76
2023/02/23 12:11:41;;;;;;;16.35;5.90;;;9.00;99.90;;;;;;5014756;28;20076;-76
2023/02/23 12:14:37;;;;;;;20.20;6.40;;;9.10;99.90;;;;;;5013657;28;20050;-76
2023/02/23 12:17:17;;;;;;;18.75;6.53;;;9.10;99.90;;;;;;5013235;28;20117;-76
2023/02/23 12:19:55;;;;;;;17.65;6.15;;;9.30;99.90;;;;;;5013303;28;20028;-76
2023/02/23 12:22:30;;;;;;;22.58;7.28;;;9.40;99.90;;;;;;5013122;28;20026;-76
2023/02/23 12:25:01;;;;;;;17.23;5.43;;;9.50;99.90;;;;;;5013940;28;20049;-76
2023/02/23 12:27:33;;;;;;;16.25;5.90;;;9.40;99.90;;;;;;5014907;28;20018;-76
2023/02/23 12:30:10;;;;;;;16.08;5.82;;;9.50;99.90;;;;;;5014514;28;20492;-76
2023/02/23 12:32:44;;;;;;;16.15;5.13;;;9.40;99.90;;;;;;5014394;28;20030;-76
2023/02/23 12:35:29;;;;;;;12.20;4.88;;;9.40;99.90;;;;;;5014245;28;20026;-76
2023/02/23 12:38:08;;;;;;;13.75;4.15;;;9.40;99.90;;;;;;5013038;28;20018;-76
2023/02/23 12:40:37;;;;;;;14.13;4.18;;;9.40;99.90;;;;;;5012942;28;20117;-76
2023/02/23 12:43:23;;;;;;;15.98;5.22;;;9.30;99.90;;;;;;5014035;28;20141;-76
2023/02/23 12:46:01;;;;;;;14.15;4.82;;;9.40;99.90;;;;;;5014382;28;20038;-76
2023/02/23 12:48:43;;;;;;;14.63;4.72;;;9.30;99.90;;;;;;5012982;28;20061;-76
2023/02/23 12:51:35;;;;;;;16.45;3.55;;;9.40;99.90;;;;;;5014396;28;20068;-76
2023/02/23 12:54:01;;;;;;;13.35;4.57;;;9.50;99.90;;;;;;4986789;28;20488;-76
2023/02/23 12:56:46;;;;;;;12.98;4.00;;;9.50;99.90;;;;;;5014005;28;20088;-76
2023/02/23 12:59:50;;;;;;;13.10;3.97;;;9.60;99.90;;;;;;5014560;28;20026;-76
2023/02/23 13:02:31;;;;;;;13.25;4.07;;;9.70;99.90;;;;;;5012656;28;20075;-76
2023/02/23 13:05:05;;;;;;;14.70;4.28;;;9.70;99.90;;;;;;5013972;28;20435;-76
2023/02/23 13:07:33;;;;;;;14.20;3.78;;;9.80;99.90;;;;;;5014011;28;20599;-76
2023/02/23 13:10:05;;;;;;;14.23;3.97;;;9.90;99.90;;;;;;5012607;28;20397;-76
2023/02/23 13:12:55;;;;;;;14.70;4.28;;;9.90;99.90;;;;;;5013764;28;20057;-76
2023/02/23 13:15:41;;;;;;;21.98;5.97;;;10.10;99.90;;;;;;5012429;28;20040;-76
2023/02/23 13:18:26;;;;;;;16.42;4.80;;;10.30;99.90;;;;;;5013738;28;20013;-76
2023/02/23 13:21:19;;;;;;;15.27;4.78;;;10.40;99.90;;;;;;5013572;28;20026;-76
2023/02/23 13:24:04;;;;;;;13.38;5.00;;;10.30;99.90;;;;;;5011911;28;20033;-76
2023/02/23 13:26:35;;;;;;;14.85;4.78;;;10.30;99.90;;;;;;5014012;28;20038;-76
2023/02/23 13:29:38;;;;;;;15.68;6.03;;;10.30;99.90;;;;;;5014336;28;20057;-76
2023/02/23 13:32:12;;;;;;;17.42;4.68;;;10.20;99.90;;;;;;5014192;28;20026;-76
2023/02/23 13:34:51;;;;;;;14.07;5.00;;;10.20;99.90;;;;;;5013521;28;20033;-76
2023/02/23 13:37:22;;;;;;;18.08;4.60;;;10.10;99.90;;;;;;5017334;28;20022;-76
2023/02/23 13:40:12;;;;;;;17.27;4.90;;;10.00;99.90;;;;;;5019113;28;20093;-76
2023/02/23 13:42:43;;;;;;;14.27;4.82;;;10.00;99.90;;;;;;5018497;28;20044;-76
2023/02/23 13:45:26;;;;;;;15.00;4.75;;;9.90;99.90;;;;;;5017386;28;20135;-76
2023/02/23 13:48:24;;;;;;;13.80;4.63;;;9.80;99.90;;;;;;5017069;28;20029;-76
2023/02/23 13:51:02;;;;;;;17.05;4.78;;;9.80;99.90;;;;;;5017181;28;20037;-76
2023/02/23 13:53:41;;;;;;;13.55;4.00;;;9.80;99.90;;;;;;5018416;28;20041;-76
2023/02/23 13:56:20;;;;;;;17.50;5.25;;;9.80;99.90;;;;;;5016739;28;20030;-76
2023/02/23 13:59:04;;;;;;;10.15;3.83;;;9.80;99.90;;;;;;5018249;28;20018;-76
2023/02/23 14:01:36;;;;;;;13.15;3.28;;;9.80;99.90;;;;;;5018037;28;20022;-76
2023/02/23 14:04:06;;;;;;;17.10;4.45;;;9.70;99.90;;;;;;5018549;28;20022;-76
2023/02/23 14:06:33;;;;;;;15.40;4.25;;;9.70;99.90;;;;;;5018053;28;20121;-76
2023/02/23 14:09:40;;;;;;;14.60;3.97;;;9.60;99.90;;;;;;5016760;28;20030;-76
2023/02/23 14:12:31;;;;;;;12.65;3.97;;;9.50;99.90;;;;;;4998084;28;20041;-76
2023/02/23 14:15:23;;;;;;;12.60;4.05;;;9.40;99.90;;;;;;5017270;28;20108;-76
2023/02/23 14:18:18;;;;;;;11.13;4.15;;;9.30;99.90;;;;;;5017735;28;20097;-76
2023/02/23 14:21:23;;;;;;;15.75;4.35;;;9.30;99.90;;;;;;5016386;28;20382;-76
2023/02/23 14:23:52;;;;;;;15.50;4.15;;;9.20;99.90;;;;;;5008362;28;20029;-76
2023/02/23 14:26:27;;;;;;;15.55;5.38;;;9.30;99.90;;;;;;5016559;28;20026;-76